Time;durP1;ratioP1;P1;durP2;ratioP2;P2;SDS_P1;SDS_P2;PMS_P1;PMS_P2;Temp;Humidity;BMP_temperature;BMP_pressure;BME280_temperature;BME280_humidity;BME280_pressure;Samples;Min_cycle;Max_cycle;Signal;HPM_P1;HPM_P2
2022/04/07 00:01:54;;;;;;;190.93;94.23;;;;;;;;;;5098522;28;20456;-74
2022/04/07 00:04:22;;;;;;;121.90;86.87;;;;;;;;;;5097377;28;20447;-74
2022/04/07 00:06:53;;;;;;;172.80;95.87;;;;;;;;;;5098365;28;20461;-74
2022/04/07 00:09:21;;;;;;;93.10;80.63;;;;;;;;;;5097824;28;20488;-74
2022/04/07 00:11:52;;;;;;;94.53;75.87;;;;;;;;;;5098096;28;20471;-74
2022/04/07 00:14:21;;;;;;;104.97;83.00;;;;;;;;;;5097948;28;20448;-74
2022/04/07 00:16:51;;;;;;;74.80;67.47;;;;;;;;;;5098108;28;20464;-74
2022/04/07 00:19:20;;;;;;;78.47;70.77;;;;;;;;;;5098276;28;20605;-73
2022/04/07 00:21:48;;;;;;;85.53;76.27;;;;;;;;;;5097659;28;20501;-74
2022/04/07 00:24:16;;;;;;;86.07;76.97;;;;;;;;;;5097842;28;20459;-74
2022/04/07 00:26:44;;;;;;;80.63;72.37;;;;;;;;;;5097791;28;20463;-74
2022/04/07 00:29:12;;;;;;;85.27;76.90;;;;;;;;;;5097995;28;20919;-74
2022/04/07 00:31:42;;;;;;;87.93;78.93;;;;;;;;;;5097639;28;20578;-74
2022/04/07 00:34:09;;;;;;;112.73;86.47;;;;;;;;;;5097873;28;20723;-74
2022/04/07 00:36:37;;;;;;;63.37;58.17;;;;;;;;;;5097312;28;20490;-74
2022/04/07 00:39:05;;;;;;;78.23;70.93;;;;;;;;;;5097687;28;20463;-74
2022/04/07 00:41:37;;;;;;;73.87;67.27;;;;;;;;;;5097091;28;20460;-74
2022/04/07 00:44:08;;;;;;;66.13;60.57;;;;;;;;;;5097576;28;20539;-74
2022/04/07 00:46:36;;;;;;;22.33;20.93;;;;;;;;;;5097645;28;20482;-74
2022/04/07 00:49:05;;;;;;;81.90;73.97;;;;;;;;;;5096668;28;20766;-74
2022/04/07 00:51:34;;;;;;;41.43;38.77;;;;;;;;;;5097998;28;20462;-74
2022/04/07 00:54:02;;;;;;;76.43;69.67;;;;;;;;;;5097325;28;20454;-74
2022/04/07 00:56:30;;;;;;;48.50;45.03;;;;;;;;;;5096994;28;20542;-74
2022/04/07 00:58:57;;;;;;;53.23;49.40;;;;;;;;;;5096610;28;20878;-74
2022/04/07 01:01:28;;;;;;;42.63;39.70;;;;;;;;;;5097121;28;20550;-73
2022/04/07 01:03:56;;;;;;;53.50;49.33;;;;;;;;;;5097068;28;20546;-73
2022/04/07 01:06:26;;;;;;;66.27;60.57;;;;;;;;;;5096943;28;20475;-73
2022/04/07 01:08:54;;;;;;;74.50;66.53;;;;;;;;;;5096613;28;20484;-74
2022/04/07 01:11:22;;;;;;;101.13;83.70;;;;;;;;;;5096376;28;20455;-73
2022/04/07 01:13:51;;;;;;;121.60;87.67;;;;;;;;;;5096756;28;20463;-73
2022/04/07 01:16:19;;;;;;;128.40;90.17;;;;;;;;;;5096717;28;20818;-73
2022/04/07 01:18:47;;;;;;;169.13;101.10;;;;;;;;;;5096866;28;20452;-73
2022/04/07 01:21:16;;;;;;;198.07;99.50;;;;;;;;;;5096541;28;20514;-74
2022/04/07 01:23:51;;;;;;;158.13;96.80;;;;;;;;;;5096002;28;20684;-73
2022/04/07 01:26:21;;;;;;;155.63;88.47;;;;;;;;;;5095310;28;20548;-74
2022/04/07 01:28:49;;;;;;;207.03;96.70;;;;;;;;;;5095799;28;20487;-73
2022/04/07 01:31:19;;;;;;;204.43;93.27;;;;;;;;;;5096171;28;20536;-73
2022/04/07 01:33:47;;;;;;;201.10;96.97;;;;;;;;;;5095646;28;20448;-73
2022/04/07 01:36:19;;;;;;;202.67;95.77;;;;;;;;;;5096270;28;20456;-73
2022/04/07 01:38:47;;;;;;;137.90;88.13;;;;;;;;;;5096604;28;20474;-73
2022/04/07 01:41:15;;;;;;;93.03;78.90;;;;;;;;;;5096523;28;20456;-74
2022/04/07 01:43:44;;;;;;;102.73;83.63;;;;;;;;;;5096306;28;20532;-74
2022/04/07 01:46:13;;;;;;;163.90;95.77;;;;;;;;;;5096216;28;20459;-74
2022/04/07 01:48:41;;;;;;;119.83;83.43;;;;;;;;;;5095835;28;20994;-73
2022/04/07 01:51:10;;;;;;;115.80;89.50;;;;;;;;;;5096335;28;20475;-74
2022/04/07 01:53:39;;;;;;;202.43;96.77;;;;;;;;;;5096030;28;20456;-73
2022/04/07 01:56:07;;;;;;;127.10;89.47;;;;;;;;;;5096364;28;20464;-73
2022/04/07 01:58:36;;;;;;;106.73;81.93;;;;;;;;;;5096246;28;20466;-74
2022/04/07 02:01:05;;;;;;;138.40;92.50;;;;;;;;;;5095897;28;20746;-73
2022/04/07 02:03:33;;;;;;;174.60;97.73;;;;;;;;;;5096742;28;20529;-73
2022/04/07 02:06:14;;;;;;;172.57;92.77;;;;;;;;;;5096054;28;20451;-74
2022/04/07 02:08:42;;;;;;;191.63;100.10;;;;;;;;;;5095782;28;20483;-74
2022/04/07 02:11:10;;;;;;;165.20;93.63;;;;;;;;;;5096108;28;20517;-74
2022/04/07 02:13:39;;;;;;;156.83;94.63;;;;;;;;;;5096448;28;20932;-73
2022/04/07 02:16:09;;;;;;;122.47;88.37;;;;;;;;;;5096447;28;20464;-74
2022/04/07 02:18:37;;;;;;;101.97;81.27;;;;;;;;;;5096721;28;20840;-74
2022/04/07 02:21:05;;;;;;;140.87;91.57;;;;;;;;;;5095675;28;20466;-74
2022/04/07 02:23:34;;;;;;;166.47;88.77;;;;;;;;;;5095869;28;20452;-73
2022/04/07 02:26:02;;;;;;;187.53;99.80;;;;;;;;;;5096138;28;20474;-74
2022/04/07 02:28:32;;;;;;;148.83;93.37;;;;;;;;;;5095823;28;20524;-74
2022/04/07 02:31:00;;;;;;;158.53;92.53;;;;;;;;;;5096443;28;20563;-74
2022/04/07 02:33:29;;;;;;;148.20;92.63;;;;;;;;;;5095844;28;20462;-74
2022/04/07 02:35:57;;;;;;;139.63;89.33;;;;;;;;;;5095521;28;20499;-73
2022/04/07 02:38:25;;;;;;;153.53;89.60;;;;;;;;;;5095541;28;20473;-74
2022/04/07 02:40:54;;;;;;;132.47;92.63;;;;;;;;;;5096060;28;20552;-74
2022/04/07 02:43:21;;;;;;;138.07;81.90;;;;;;;;;;5096022;28;20800;-74
2022/04/07 02:45:49;;;;;;;167.70;92.50;;;;;;;;;;5095381;28;20460;-74
2022/04/07 02:48:20;;;;;;;128.47;84.97;;;;;;;;;;5095678;28;20462;-74
2022/04/07 02:50:55;;;;;;;150.77;88.00;;;;;;;;;;5096517;28;20882;-75
2022/04/07 02:53:24;;;;;;;167.63;93.70;;;;;;;;;;5095767;28;20526;-74
2022/04/07 02:55:52;;;;;;;153.27;89.20;;;;;;;;;;5098652;28;20545;-73
2022/04/07 02:58:20;;;;;;;177.53;92.20;;;;;;;;;;5098899;28;20895;-74
2022/04/07 03:00:48;;;;;;;179.67;97.73;;;;;;;;;;5099371;28;20463;-74
2022/04/07 03:03:16;;;;;;;151.73;90.70;;;;;;;;;;5099541;28;20455;-74
2022/04/07 03:05:44;;;;;;;174.67;95.10;;;;;;;;;;5098880;28;20875;-73
2022/04/07 03:08:13;;;;;;;169.87;92.63;;;;;;;;;;5098945;28;20913;-74
2022/04/07 03:10:41;;;;;;;162.70;86.67;;;;;;;;;;5098716;28;20525;-73
2022/04/07 03:13:09;;;;;;;183.83;96.97;;;;;;;;;;5099392;28;20455;-74
2022/04/07 03:15:37;;;;;;;161.00;91.47;;;;;;;;;;5099874;28;20781;-73
2022/04/07 03:18:05;;;;;;;175.63;94.07;;;;;;;;;;5099048;28;20465;-73
2022/04/07 03:20:33;;;;;;;169.30;91.37;;;;;;;;;;5098555;28;20459;-73
2022/04/07 03:23:00;;;;;;;167.27;93.73;;;;;;;;;;5098905;28;20455;-73
2022/04/07 03:25:30;;;;;;;146.80;95.20;;;;;;;;;;5098879;28;20566;-73
2022/04/07 03:27:58;;;;;;;144.67;90.60;;;;;;;;;;5098621;28;20750;-73
2022/04/07 03:30:31;;;;;;;157.07;90.67;;;;;;;;;;5098355;28;20503;-73
2022/04/07 03:32:58;;;;;;;166.30;88.43;;;;;;;;;;5098142;28;20922;-72
2022/04/07 03:35:26;;;;;;;170.97;90.87;;;;;;;;;;5099168;28;20459;-73
2022/04/07 03:37:54;;;;;;;156.83;95.77;;;;;;;;;;5098929;28;20466;-73
2022/04/07 03:40:22;;;;;;;151.30;85.63;;;;;;;;;;5099024;28;20534;-74
2022/04/07 03:42:52;;;;;;;145.80;86.67;;;;;;;;;;5098537;28;20462;-73
2022/04/07 03:45:20;;;;;;;148.20;91.60;;;;;;;;;;5098177;28;20879;-74
2022/04/07 03:47:48;;;;;;;152.27;87.90;;;;;;;;;;5098248;28;20469;-74
2022/04/07 03:50:20;;;;;;;150.77;90.30;;;;;;;;;;5097518;28;20767;-74
2022/04/07 03:52:53;;;;;;;163.27;92.13;;;;;;;;;;5098493;28;20844;-75
2022/04/07 03:55:22;;;;;;;165.37;86.33;;;;;;;;;;5095787;28;20459;-74
2022/04/07 03:57:51;;;;;;;151.33;85.53;;;;;;;;;;5098208;28;20931;-74
2022/04/07 04:00:22;;;;;;;172.17;92.67;;;;;;;;;;5098518;28;20482;-74
2022/04/07 04:02:50;;;;;;;166.67;90.70;;;;;;;;;;5097060;28;20505;-74
2022/04/07 04:05:18;;;;;;;159.63;90.30;;;;;;;;;;5097709;28;20472;-74
2022/04/07 04:07:46;;;;;;;141.67;88.30;;;;;;;;;;5098460;28;20528;-75
2022/04/07 04:10:14;;;;;;;185.87;88.60;;;;;;;;;;5097880;28;20771;-74
2022/04/07 04:12:42;;;;;;;153.77;86.30;;;;;;;;;;5096510;28;20505;-74
2022/04/07 04:15:14;;;;;;;153.17;85.77;;;;;;;;;;5097933;28;20563;-74
2022/04/07 04:17:43;;;;;;;133.93;78.87;;;;;;;;;;5097128;28;20443;-74
2022/04/07 04:20:11;;;;;;;171.80;86.57;;;;;;;;;;5097936;28;20769;-74
2022/04/07 04:22:39;;;;;;;147.23;82.30;;;;;;;;;;5096617;28;20530;-74
2022/04/07 04:25:11;;;;;;;150.27;81.67;;;;;;;;;;5097137;28;20465;-74
2022/04/07 04:27:40;;;;;;;112.37;77.67;;;;;;;;;;5096969;28;20858;-74
2022/04/07 04:30:09;;;;;;;140.90;82.00;;;;;;;;;;5097201;28;20497;-74
2022/04/07 04:32:38;;;;;;;154.37;82.17;;;;;;;;;;5098145;28;21089;-74
2022/04/07 04:35:08;;;;;;;143.40;82.60;;;;;;;;;;5097439;28;20448;-74
2022/04/07 04:40:22;;;;;;;107.80;80.03;;;;;;;;;;5095079;28;20463;-74
2022/04/07 04:42:50;;;;;;;117.63;81.50;;;;;;;;;;5097348;28;20558;-74
2022/04/07 04:45:18;;;;;;;130.83;81.60;;;;;;;;;;5096659;28;20879;-73
2022/04/07 04:47:52;;;;;;;109.47;76.77;;;;;;;;;;5096289;28;20460;-74
2022/04/07 04:50:20;;;;;;;123.07;83.43;;;;;;;;;;5096954;28;20757;-74
2022/04/07 04:52:48;;;;;;;145.87;86.03;;;;;;;;;;5096836;28;20533;-74
2022/04/07 04:55:16;;;;;;;114.40;78.50;;;;;;;;;;5096197;28;20455;-73
2022/04/07 04:57:44;;;;;;;134.30;87.70;;;;;;;;;;5096085;28;20499;-73
2022/04/07 05:00:13;;;;;;;102.93;75.47;;;;;;;;;;5095518;28;20464;-74
2022/04/07 05:02:41;;;;;;;131.47;85.00;;;;;;;;;;5095991;28;20464;-73
2022/04/07 05:05:11;;;;;;;87.83;76.57;;;;;;;;;;5095879;28;20477;-74
2022/04/07 05:07:39;;;;;;;129.40;86.03;;;;;;;;;;5095734;28;20459;-74
2022/04/07 05:10:14;;;;;;;91.53;76.00;;;;;;;;;;5095739;28;20635;-74
2022/04/07 05:12:42;;;;;;;154.37;93.87;;;;;;;;;;5093404;28;20743;-74
2022/04/07 05:15:11;;;;;;;140.40;84.90;;;;;;;;;;5095419;28;20443;-74
2022/04/07 05:17:38;;;;;;;148.07;89.77;;;;;;;;;;5094225;28;20558;-74
2022/04/07 05:20:07;;;;;;;177.03;91.47;;;;;;;;;;5095816;28;20466;-74
2022/04/07 05:22:36;;;;;;;101.57;77.67;;;;;;;;;;5096169;28;20464;-74
2022/04/07 05:25:04;;;;;;;105.47;84.03;;;;;;;;;;5096307;28;20462;-74
2022/04/07 05:27:35;;;;;;;112.20;74.23;;;;;;;;;;5095997;28;20538;-74
2022/04/07 05:30:03;;;;;;;126.20;83.50;;;;;;;;;;5092245;28;20479;-74
2022/04/07 05:32:31;;;;;;;123.07;79.27;;;;;;;;;;5095898;28;20471;-74
2022/04/07 05:34:59;;;;;;;128.10;85.60;;;;;;;;;;5095672;28;20817;-74
2022/04/07 05:37:26;;;;;;;93.70;73.80;;;;;;;;;;5094390;28;20470;-74
2022/04/07 05:40:01;;;;;;;114.07;83.27;;;;;;;;;;5093526;28;20570;-73
2022/04/07 05:42:32;;;;;;;114.77;84.40;;;;;;;;;;5094900;28;20478;-74
2022/04/07 05:44:59;;;;;;;98.57;72.73;;;;;;;;;;5094922;28;20463;-74
2022/04/07 05:47:27;;;;;;;117.10;84.00;;;;;;;;;;5094969;28;20520;-74
2022/04/07 05:49:59;;;;;;;127.17;87.50;;;;;;;;;;5095110;28;20480;-74
2022/04/07 05:52:27;;;;;;;116.90;76.83;;;;;;;;;;5078450;28;20463;-74
2022/04/07 05:54:58;;;;;;;109.83;83.90;;;;;;;;;;5095964;28;20456;-74
2022/04/07 05:57:28;;;;;;;132.27;89.27;;;;;;;;;;5094867;28;20746;-74
2022/04/07 05:59:55;;;;;;;106.70;87.27;;;;;;;;;;5094473;28;20455;-74
2022/04/07 06:02:23;;;;;;;97.07;78.53;;;;;;;;;;5094291;28;20897;-74
2022/04/07 06:04:51;;;;;;;132.20;87.00;;;;;;;;;;5094031;28;20455;-74
2022/04/07 06:07:19;;;;;;;134.97;89.33;;;;;;;;;;5095120;28;20460;-74
2022/04/07 06:09:47;;;;;;;132.10;79.87;;;;;;;;;;5094473;28;20480;-74
2022/04/07 06:12:16;;;;;;;126.83;85.43;;;;;;;;;;5093733;28;20487;-73
2022/04/07 06:14:47;;;;;;;138.67;85.93;;;;;;;;;;5092769;28;20618;-74
2022/04/07 06:17:15;;;;;;;122.57;87.27;;;;;;;;;;5093935;28;20471;-75
2022/04/07 06:19:44;;;;;;;107.33;80.27;;;;;;;;;;5094582;28;20935;-74
2022/04/07 06:22:12;;;;;;;100.67;81.03;;;;;;;;;;5079395;28;20468;-74
2022/04/07 06:24:40;;;;;;;96.77;70.03;;;;;;;;;;5074932;28;20453;-74
2022/04/07 06:27:11;;;;;;;125.93;83.67;;;;;;;;;;5074543;28;21034;-74
2022/04/07 06:29:46;;;;;;;149.33;86.07;;;;;;;;;;5080751;28;20510;-74
2022/04/07 06:32:14;;;;;;;133.30;81.80;;;;;;;;;;5078175;28;20490;-75
2022/04/07 06:34:43;;;;;;;105.00;76.93;;;;;;;;;;5078319;28;20903;-74
2022/04/07 06:37:14;;;;;;;117.97;89.47;;;;;;;;;;5078378;28;20483;-73
2022/04/07 06:39:42;;;;;;;123.23;91.50;;;;;;;;;;5078273;28;20878;-73
2022/04/07 06:42:10;;;;;;;160.47;94.20;;;;;;;;;;5078521;28;20460;-73
2022/04/07 06:44:38;;;;;;;153.83;89.97;;;;;;;;;;5078795;28;20470;-74
2022/04/07 06:47:08;;;;;;;168.87;92.97;;;;;;;;;;5076996;28;20456;-73
2022/04/07 06:49:36;;;;;;;150.40;92.40;;;;;;;;;;5076410;28;20472;-73
2022/04/07 06:52:04;;;;;;;138.80;90.53;;;;;;;;;;5076820;28;20552;-73
2022/04/07 06:54:32;;;;;;;122.67;87.93;;;;;;;;;;5076585;28;20472;-73
2022/04/07 06:57:00;;;;;;;171.77;97.43;;;;;;;;;;5094117;28;20499;-73
2022/04/07 06:59:28;;;;;;;136.83;86.13;;;;;;;;;;5097913;28;20474;-73
2022/04/07 07:01:57;;;;;;;124.33;97.83;;;;;;;;;;5095590;28;20557;-73
2022/04/07 07:04:27;;;;;;;90.23;81.10;;;;;;;;;;5096781;28;20474;-73
2022/04/07 07:06:55;;;;;;;145.07;92.13;;;;;;;;;;5097573;28;20476;-73
2022/04/07 07:09:26;;;;;;;112.97;88.13;;;;;;;;;;5092130;28;20475;-74
2022/04/07 07:11:56;;;;;;;144.40;104.70;;;;;;;;;;5097716;28;20517;-73
2022/04/07 07:14:24;;;;;;;120.83;94.20;;;;;;;;;;5098296;28;20559;-73
2022/04/07 07:16:54;;;;;;;155.83;94.27;;;;;;;;;;5096887;28;20450;-74
2022/04/07 07:19:26;;;;;;;149.97;96.70;;;;;;;;;;5098037;28;20456;-74
2022/04/07 07:21:57;;;;;;;140.30;92.33;;;;;;;;;;5097343;28;20539;-73
2022/04/07 07:24:25;;;;;;;108.80;89.63;;;;;;;;;;5096515;28;20460;-73
2022/04/07 07:27:01;;;;;;;130.37;92.57;;;;;;;;;;5097303;28;20461;-74
2022/04/07 07:29:31;;;;;;;113.57;87.90;;;;;;;;;;5097032;28;20916;-74
2022/04/07 07:32:01;;;;;;;129.57;96.67;;;;;;;;;;5096237;28;20901;-74
2022/04/07 07:34:33;;;;;;;127.03;93.10;;;;;;;;;;5095593;28;20471;-73
2022/04/07 07:37:06;;;;;;;126.37;92.60;;;;;;;;;;5097223;28;20779;-74
2022/04/07 07:39:46;;;;;;;133.93;101.87;;;;;;;;;;5096825;28;20792;-74
2022/04/07 07:42:14;;;;;;;104.97;93.33;;;;;;;;;;5097198;28;20459;-74
2022/04/07 07:47:29;;;;;;;81.80;74.97;;;;;;;;;;5088971;28;20451;-75
2022/04/07 07:49:57;;;;;;;116.50;104.10;;;;;;;;;;5096205;27;20563;-74
2022/04/07 07:52:40;;;;;;;115.50;103.77;;;;;;;;;;5085721;28;20559;-73
2022/04/07 07:55:13;;;;;;;140.43;111.00;;;;;;;;;;5095902;28;20455;-74
2022/04/07 07:57:43;;;;;;;121.60;109.10;;;;;;;;;;5075851;28;20476;-72
2022/04/07 08:00:16;;;;;;;153.47;126.03;;;;;;;;;;5075526;28;20856;-74
2022/04/07 08:02:50;;;;;;;146.47;116.93;;;;;;;;;;5085404;28;20469;-74
2022/04/07 08:05:20;;;;;;;131.37;118.30;;;;;;;;;;5107574;28;20863;-74
2022/04/07 08:07:49;;;;;;;124.83;106.47;;;;;;;;;;5087080;28;20459;-73
2022/04/07 08:10:18;;;;;;;126.07;112.37;;;;;;;;;;5094217;28;20478;-74
2022/04/07 08:12:46;;;;;;;119.67;107.17;;;;;;;;;;5095503;28;20868;-74
2022/04/07 08:15:19;;;;;;;127.70;111.37;;;;;;;;;;5095912;28;20911;-74
2022/04/07 08:17:47;;;;;;;148.20;117.17;;;;;;;;;;5075457;28;20543;-74
2022/04/07 08:20:18;;;;;;;130.27;109.10;;;;;;;;;;5074961;28;20555;-73
2022/04/07 08:22:48;;;;;;;121.63;108.87;;;;;;;;;;5074867;28;20466;-74
2022/04/07 08:25:16;;;;;;;132.47;110.23;;;;;;;;;;5075372;28;20539;-73
2022/04/07 08:27:48;;;;;;;120.63;107.63;;;;;;;;;;5085519;28;20463;-74
2022/04/07 08:30:17;;;;;;;122.47;109.40;;;;;;;;;;5101308;27;20480;-74
2022/04/07 08:32:49;;;;;;;117.57;104.57;;;;;;;;;;5089506;28;20471;-73
2022/04/07 08:35:17;;;;;;;130.40;105.87;;;;;;;;;;5094345;28;20458;-73
2022/04/07 08:40:26;;;;;;;122.97;99.20;;;;;;;;;;5026438;28;20464;-74
2022/04/07 08:42:59;;;;;;;124.07;92.37;;;;;;;;;;5074747;28;20849;-74
2022/04/07 08:45:27;;;;;;;66.80;61.43;;;;;;;;;;5075715;28;20444;-73
2022/04/07 08:47:56;;;;;;;120.40;91.33;;;;;;;;;;5076375;28;20456;-74
2022/04/07 08:50:33;;;;;;;145.63;100.03;;;;;;;;;;5074056;28;20484;-74
2022/04/07 08:53:06;;;;;;;156.07;99.67;;;;;;;;;;5074239;28;20499;-74
2022/04/07 08:55:37;;;;;;;142.67;97.07;;;;;;;;;;5075833;28;20440;-74
2022/04/07 08:58:22;;;;;;;88.70;80.20;;;;;;;;;;5075007;28;20494;-73
2022/04/07 09:00:54;;;;;;;107.30;83.93;;;;;;;;;;5091065;28;20474;-73
2022/04/07 09:03:29;;;;;;;131.47;86.23;;;;;;;;;;5086950;28;20479;-73
2022/04/07 09:06:00;;;;;;;76.17;69.37;;;;;;;;;;5074136;28;20491;-73
2022/04/07 09:08:34;;;;;;;74.70;68.43;;;;;;;;;;5074626;28;20898;-73
2022/04/07 09:11:03;;;;;;;93.00;84.07;;;;;;;;;;5076795;28;20511;-73
2022/04/07 09:13:39;;;;;;;117.43;87.20;;;;;;;;;;5096081;28;20489;-73
2022/04/07 09:16:12;;;;;;;90.57;80.90;;;;;;;;;;5095418;27;20458;-73
2022/04/07 09:18:48;;;;;;;83.20;75.17;;;;;;;;;;5090650;28;20490;-73
2022/04/07 09:21:20;;;;;;;118.07;84.77;;;;;;;;;;5072906;28;20799;-73
2022/04/07 09:23:49;;;;;;;99.20;86.87;;;;;;;;;;5072362;28;20476;-73
2022/04/07 09:26:18;;;;;;;77.67;69.50;;;;;;;;;;5074095;28;20618;-73
2022/04/07 09:28:48;;;;;;;98.17;78.17;;;;;;;;;;5074126;28;20755;-74
2022/04/07 09:31:16;;;;;;;114.63;85.70;;;;;;;;;;5074147;28;20491;-73
2022/04/07 09:33:55;;;;;;;119.90;87.27;;;;;;;;;;5086574;28;20458;-74
2022/04/07 09:36:26;;;;;;;129.90;92.27;;;;;;;;;;5093476;28;20474;-73
2022/04/07 09:39:00;;;;;;;112.47;84.00;;;;;;;;;;5074163;28;20452;-74
2022/04/07 09:41:32;;;;;;;93.97;79.23;;;;;;;;;;5093499;28;20550;-72
2022/04/07 09:44:03;;;;;;;112.33;82.17;;;;;;;;;;5090120;28;20489;-72
2022/04/07 09:46:34;;;;;;;151.07;78.67;;;;;;;;;;5107616;28;20476;-72
2022/04/07 09:49:04;;;;;;;125.97;67.17;;;;;;;;;;5074186;28;20460;-73
2022/04/07 09:51:32;;;;;;;120.53;64.60;;;;;;;;;;5073998;28;20492;-72
2022/04/07 09:54:00;;;;;;;115.40;65.97;;;;;;;;;;5081873;28;20517;-73
2022/04/07 09:56:28;;;;;;;116.00;62.80;;;;;;;;;;5094749;28;20481;-72
2022/04/07 09:58:57;;;;;;;127.10;63.17;;;;;;;;;;5093965;28;20540;-72
2022/04/07 10:01:26;;;;;;;97.67;56.13;;;;;;;;;;5094028;28;20470;-74
2022/04/07 10:03:54;;;;;;;114.70;65.30;;;;;;;;;;5096330;28;20462;-73
2022/04/07 10:06:26;;;;;;;104.97;62.57;;;;;;;;;;5096394;28;20463;-73
2022/04/07 10:08:54;;;;;;;139.27;65.87;;;;;;;;;;5096405;28;20471;-73
2022/04/07 10:11:25;;;;;;;108.07;63.30;;;;;;;;;;5097472;28;20576;-73
2022/04/07 10:13:53;;;;;;;117.80;63.23;;;;;;;;;;5096885;28;20494;-73
2022/04/07 10:16:30;;;;;;;104.10;65.00;;;;;;;;;;5097891;28;20458;-73
2022/04/07 10:19:06;;;;;;;112.00;61.97;;;;;;;;;;5078042;28;20966;-73
2022/04/07 10:21:45;;;;;;;117.17;62.47;;;;;;;;;;5092486;28;20476;-73
2022/04/07 10:24:25;;;;;;;125.37;74.93;;;;;;;;;;5085488;28;20463;-73
2022/04/07 10:26:53;;;;;;;135.23;67.60;;;;;;;;;;5096942;28;20626;-72
2022/04/07 10:29:23;;;;;;;109.00;62.97;;;;;;;;;;5092052;28;20551;-73
2022/04/07 10:32:05;;;;;;;126.87;64.17;;;;;;;;;;5097870;28;20855;-73
2022/04/07 10:34:38;;;;;;;113.53;61.87;;;;;;;;;;5100880;27;20548;-73
2022/04/07 10:37:12;;;;;;;113.17;61.27;;;;;;;;;;5103970;28;20453;-73
2022/04/07 10:39:45;;;;;;;115.17;61.33;;;;;;;;;;5089215;28;20748;-73
2022/04/07 10:42:13;;;;;;;117.93;62.17;;;;;;;;;;5097758;28;20445;-72
2022/04/07 10:44:41;;;;;;;117.80;63.77;;;;;;;;;;5092564;28;20459;-73
2022/04/07 10:47:10;;;;;;;121.03;62.50;;;;;;;;;;5095492;28;20520;-73
2022/04/07 10:49:47;;;;;;;123.73;63.90;;;;;;;;;;5097016;28;20459;-73
2022/04/07 10:52:27;;;;;;;138.80;64.40;;;;;;;;;;5097828;28;21030;-73
2022/04/07 10:55:10;;;;;;;138.30;67.40;;;;;;;;;;5079556;28;21100;-73
2022/04/07 10:58:06;;;;;;;82.73;55.50;;;;;;;;;;5097663;28;20452;-73
2022/04/07 11:00:40;;;;;;;111.47;61.90;;;;;;;;;;5095296;28;20508;-72
2022/04/07 11:03:19;;;;;;;135.00;64.50;;;;;;;;;;5085896;28;20459;-73
2022/04/07 11:08:49;;;;;;;134.57;62.30;;;;;;;;;;5091937;28;20448;-73
2022/04/07 11:11:32;;;;;;;133.00;69.63;;;;;;;;;;5097100;28;20580;-74
2022/04/07 11:14:12;;;;;;;128.33;63.43;;;;;;;;;;5079426;28;20440;-74
2022/04/07 11:16:50;;;;;;;106.07;61.50;;;;;;;;;;5096585;28;20466;-74
2022/04/07 11:19:45;;;;;;;139.03;69.10;;;;;;;;;;5090573;28;20551;-72
2022/04/07 11:22:28;;;;;;;129.93;71.03;;;;;;;;;;5076593;28;20468;-73
2022/04/07 11:25:26;;;;;;;131.43;61.87;;;;;;;;;;5061204;28;20448;-75
2022/04/07 11:28:30;;;;;;;141.43;67.57;;;;;;;;;;5086597;28;20481;-73
2022/04/07 11:31:31;;;;;;;123.70;63.27;;;;;;;;;;5088806;28;20547;-73
2022/04/07 11:37:14;;;;;;;131.63;61.47;;;;;;;;;;5034844;28;20498;-74
2022/04/07 11:39:49;;;;;;;162.17;72.70;;;;;;;;;;5090293;28;20547;-73
2022/04/07 11:42:23;;;;;;;133.00;67.80;;;;;;;;;;5091554;28;20847;-73
2022/04/07 11:45:18;;;;;;;132.47;65.37;;;;;;;;;;5095925;28;20481;-74
2022/04/07 11:50:49;;;;;;;136.60;68.20;;;;;;;;;;5076545;28;20869;-73
2022/04/07 11:53:19;;;;;;;133.07;66.27;;;;;;;;;;5077665;28;20927;-73
2022/04/07 11:55:50;;;;;;;149.70;70.27;;;;;;;;;;5106793;28;20478;-73
2022/04/07 11:58:21;;;;;;;126.30;69.03;;;;;;;;;;5081926;28;20445;-74
2022/04/07 12:00:49;;;;;;;128.60;67.60;;;;;;;;;;5089334;28;20472;-73
2022/04/07 12:03:41;;;;;;;;;;;;;;;;;;;;;
2022/04/07 12:06:22;;;;;;;127.67;68.17;;;;;;;;;;5095987;28;20444;-73
2022/04/07 12:11:55;;;;;;;136.90;68.77;;;;;;;;;;5070245;28;20484;-72
2022/04/07 12:14:29;;;;;;;150.70;82.63;;;;;;;;;;5095360;28;20490;-74
2022/04/07 12:17:03;;;;;;;151.93;88.07;;;;;;;;;;5097245;28;20450;-74
2022/04/07 12:19:45;;;;;;;130.60;77.23;;;;;;;;;;5088750;28;20460;-74
2022/04/07 12:22:21;;;;;;;153.00;78.70;;;;;;;;;;5087435;28;20521;-75
2022/04/07 12:25:01;;;;;;;146.70;74.60;;;;;;;;;;5079102;28;20447;-74
2022/04/07 12:27:32;;;;;;;146.40;80.30;;;;;;;;;;5095158;28;20524;-74
2022/04/07 12:30:04;;;;;;;157.47;78.07;;;;;;;;;;5092883;28;20534;-74
2022/04/07 12:32:52;;;;;;;136.57;80.97;;;;;;;;;;5085085;28;20476;-73
2022/04/07 12:35:48;;;;;;;124.33;82.37;;;;;;;;;;5093464;28;20819;-73
2022/04/07 12:41:31;;;;;;;111.70;80.23;;;;;;;;;;5092027;28;20680;-74
2022/04/07 12:44:00;;;;;;;126.17;84.30;;;;;;;;;;5097959;28;20454;-73
2022/04/07 12:46:44;;;;;;;134.37;85.20;;;;;;;;;;5093300;28;20548;-74
2022/04/07 12:49:12;;;;;;;131.53;83.60;;;;;;;;;;5095845;28;20467;-74
2022/04/07 12:51:40;;;;;;;144.17;89.97;;;;;;;;;;5099785;28;20782;-74
2022/04/07 12:54:08;;;;;;;109.20;76.37;;;;;;;;;;5096047;28;20456;-72
2022/04/07 12:56:58;;;;;;;128.17;90.67;;;;;;;;;;5097806;28;20447;-74
2022/04/07 12:59:37;;;;;;;112.97;84.50;;;;;;;;;;5101971;28;20468;-73
2022/04/07 13:02:18;;;;;;;117.13;86.97;;;;;;;;;;5085825;28;20464;-74
2022/04/07 13:04:58;;;;;;;115.50;83.17;;;;;;;;;;5094316;28;20588;-73
2022/04/07 13:07:49;;;;;;;160.33;95.57;;;;;;;;;;5094023;28;20495;-74
2022/04/07 13:10:35;;;;;;;146.90;94.13;;;;;;;;;;5095747;28;20463;-74
2022/04/07 13:13:13;;;;;;;134.50;83.27;;;;;;;;;;5097856;28;20479;-74
2022/04/07 13:15:49;;;;;;;144.43;90.40;;;;;;;;;;5098852;28;20463;-74
2022/04/07 13:21:18;;;;;;;135.13;92.63;;;;;;;;;;5092379;28;20459;-74
2022/04/07 13:24:07;;;;;;;120.70;93.07;;;;;;;;;;5097391;28;20439;-76
2022/04/07 13:26:35;;;;;;;102.63;84.03;;;;;;;;;;5095642;28;20932;-74
2022/04/07 13:31:51;;;;;;;122.90;99.17;;;;;;;;;;5094864;28;20517;-74
2022/04/07 13:34:20;;;;;;;127.87;96.07;;;;;;;;;;5094625;28;20816;-75
2022/04/07 13:36:48;;;;;;;132.60;103.30;;;;;;;;;;5094696;28;20765;-74
2022/04/07 13:39:17;;;;;;;127.63;100.47;;;;;;;;;;5093289;28;20448;-74
2022/04/07 13:41:54;;;;;;;147.17;102.83;;;;;;;;;;5094324;28;20612;-74
2022/04/07 13:44:33;;;;;;;122.57;91.83;;;;;;;;;;5077814;28;20464;-75
2022/04/07 13:47:08;;;;;;;138.87;97.70;;;;;;;;;;5091312;28;20447;-74
2022/04/07 13:49:47;;;;;;;130.10;94.93;;;;;;;;;;5084620;28;20455;-74
2022/04/07 13:52:20;;;;;;;128.37;90.77;;;;;;;;;;5086515;28;20619;-73
2022/04/07 13:54:51;;;;;;;143.80;87.13;;;;;;;;;;5094915;28;20457;-73
2022/04/07 13:57:28;;;;;;;129.00;87.17;;;;;;;;;;5094036;28;20459;-74
2022/04/07 14:00:06;;;;;;;123.57;83.97;;;;;;;;;;5092902;28;20448;-75
2022/04/07 14:02:37;;;;;;;113.83;78.67;;;;;;;;;;5083194;28;20459;-74
2022/04/07 14:05:21;;;;;;;109.70;82.80;;;;;;;;;;5101794;28;20543;-75
2022/04/07 14:07:52;;;;;;;129.93;94.27;;;;;;;;;;5093851;28;20458;-75
2022/04/07 14:10:23;;;;;;;116.40;85.57;;;;;;;;;;5085508;28;20463;-74
2022/04/07 14:12:58;;;;;;;107.60;85.37;;;;;;;;;;5094748;28;20472;-74
2022/04/07 14:15:26;;;;;;;127.20;91.27;;;;;;;;;;5093458;28;20459;-75
2022/04/07 14:17:58;;;;;;;110.60;82.43;;;;;;;;;;5093408;28;20636;-73
2022/04/07 14:20:34;;;;;;;107.60;95.90;;;;;;;;;;5094942;28;20515;-74
2022/04/07 14:23:15;;;;;;;96.60;86.50;;;;;;;;;;5092380;28;20464;-73
2022/04/07 14:26:10;;;;;;;86.83;77.83;;;;;;;;;;5093956;28;20514;-75
2022/04/07 14:28:43;;;;;;;96.00;85.83;;;;;;;;;;5088909;28;20509;-72
2022/04/07 14:34:04;;;;;;;108.50;93.63;;;;;;;;;;5073091;28;20483;-74
2022/04/07 14:36:54;;;;;;;102.40;90.43;;;;;;;;;;5074173;28;20540;-74
2022/04/07 14:39:30;;;;;;;131.70;100.87;;;;;;;;;;5072865;28;20571;-75
2022/04/07 14:42:01;;;;;;;124.27;101.03;;;;;;;;;;5074073;28;21052;-74
2022/04/07 14:44:43;;;;;;;133.77;99.03;;;;;;;;;;5074127;28;20464;-75
2022/04/07 14:47:21;;;;;;;121.90;94.43;;;;;;;;;;5080499;28;20468;-76
2022/04/07 14:50:13;;;;;;;116.43;104.27;;;;;;;;;;5075238;28;20467;-75
2022/04/07 14:53:08;;;;;;;128.30;96.27;;;;;;;;;;5093662;28;20480;-75
2022/04/07 14:55:40;;;;;;;136.83;104.57;;;;;;;;;;5098342;28;20456;-74
2022/04/07 14:58:21;;;;;;;133.57;104.03;;;;;;;;;;5089952;28;20452;-74
2022/04/07 15:01:08;;;;;;;142.90;102.77;;;;;;;;;;5091745;28;20503;-75
2022/04/07 15:04:03;;;;;;;133.90;105.67;;;;;;;;;;5089653;28;20539;-75
2022/04/07 15:09:44;;;;;;;157.17;100.97;;;;;;;;;;5075497;28;20521;-73